Time;durP1;ratioP1;P1;durP2;ratioP2;P2;SDS_P1;SDS_P2;PMS_P1;PMS_P2;Temp;Humidity;BMP_temperature;BMP_pressure;BME280_temperature;BME280_humidity;BME280_pressure;Samples;Min_cycle;Max_cycle;Signal;HPM_P1;HPM_P2
2023/02/08 00:00:49;;;;;;;4.07;2.07;;;3.20;99.90;;;;;;4985389;28;20788;-71
2023/02/08 00:03:15;;;;;;;5.17;2.20;;;3.10;99.90;;;;;;4982563;28;20217;-71
2023/02/08 00:05:42;;;;;;;3.77;2.03;;;3.20;99.90;;;;;;4997312;28;20328;-71
2023/02/08 00:08:08;;;;;;;2.43;1.80;;;3.10;99.90;;;;;;4988145;28;20247;-71
2023/02/08 00:10:35;;;;;;;5.50;3.00;;;3.10;99.90;;;;;;4975023;28;20196;-71
2023/02/08 00:13:02;;;;;;;9.73;3.30;;;3.10;99.90;;;;;;4980375;28;20185;-71
2023/02/08 00:15:28;;;;;;;5.43;2.80;;;3.10;99.90;;;;;;4979767;28;20192;-71
2023/02/08 00:17:55;;;;;;;5.20;2.53;;;3.10;99.90;;;;;;4980257;28;20614;-71
2023/02/08 00:20:21;;;;;;;3.70;2.60;;;3.10;99.90;;;;;;4970720;28;20210;-71
2023/02/08 00:22:47;;;;;;;6.03;3.00;;;3.10;99.90;;;;;;4976938;28;20316;-71
2023/02/08 00:25:13;;;;;;;3.53;2.43;;;3.10;99.90;;;;;;4990352;28;20186;-71
2023/02/08 00:27:39;;;;;;;3.67;2.03;;;3.10;99.90;;;;;;4978811;28;20284;-71
2023/02/08 00:30:08;;;;;;;7.10;2.60;;;3.10;99.90;;;;;;4975629;28;20668;-71
2023/02/08 00:32:34;;;;;;;8.20;2.87;;;3.10;99.90;;;;;;4959201;28;20863;-70
2023/02/08 00:35:00;;;;;;;10.47;3.30;;;3.20;99.90;;;;;;4979124;28;20253;-70
2023/02/08 00:37:26;;;;;;;5.30;2.23;;;3.10;99.90;;;;;;4979856;28;20189;-71
2023/02/08 00:39:52;;;;;;;7.00;3.50;;;3.10;99.90;;;;;;4982604;28;20217;-71
2023/02/08 00:42:19;;;;;;;4.90;2.63;;;3.10;99.90;;;;;;4973936;28;20205;-71
2023/02/08 00:44:45;;;;;;;2.30;1.73;;;3.20;99.90;;;;;;4982405;28;20190;-71
2023/02/08 00:47:11;;;;;;;6.90;4.20;;;3.10;99.90;;;;;;4979021;28;20956;-71
2023/02/08 00:49:37;;;;;;;7.30;2.73;;;3.10;99.90;;;;;;4984275;28;20192;-71
2023/02/08 00:52:04;;;;;;;3.70;2.10;;;3.10;99.90;;;;;;4976549;28;20201;-71
2023/02/08 00:54:30;;;;;;;2.93;1.73;;;3.10;99.90;;;;;;4979945;28;20295;-71
2023/02/08 00:56:56;;;;;;;3.27;1.77;;;3.10;99.90;;;;;;4979632;28;20201;-71
2023/02/08 00:59:22;;;;;;;4.30;1.67;;;3.10;99.90;;;;;;4981861;28;20243;-71
2023/02/08 01:01:48;;;;;;;2.00;1.40;;;3.20;99.90;;;;;;4972944;28;20185;-71
2023/02/08 01:04:15;;;;;;;3.87;1.70;;;3.30;99.90;;;;;;4974856;28;20840;-71
2023/02/08 01:06:41;;;;;;;3.10;1.73;;;3.30;99.90;;;;;;4971733;28;20559;-71
2023/02/08 01:09:07;;;;;;;2.03;1.60;;;3.40;99.90;;;;;;4980164;28;20700;-71
2023/02/08 01:11:33;;;;;;;3.40;1.60;;;3.40;99.90;;;;;;4974587;28;20551;-71
2023/02/08 01:14:00;;;;;;;3.87;1.60;;;3.50;99.90;;;;;;4979932;28;20215;-71
2023/02/08 01:16:30;;;;;;;3.03;1.60;;;3.50;99.90;;;;;;4993646;28;20182;-71
2023/02/08 01:18:58;;;;;;;2.67;1.47;;;3.60;99.90;;;;;;4979864;28;20210;-71
2023/02/08 01:21:33;;;;;;;2.40;1.53;;;3.60;99.90;;;;;;4961530;28;20181;-71
2023/02/08 01:24:00;;;;;;;3.00;1.50;;;3.60;99.90;;;;;;4976312;28;20589;-71
2023/02/08 01:26:27;;;;;;;7.07;1.63;;;3.60;99.90;;;;;;4980064;28;20216;-71
2023/02/08 01:28:55;;;;;;;2.87;1.67;;;3.70;99.90;;;;;;4980772;28;20189;-71
2023/02/08 01:31:29;;;;;;;3.83;1.60;;;3.70;99.90;;;;;;4980836;28;20305;-71
2023/02/08 01:33:57;;;;;;;1.33;1.20;;;3.70;99.90;;;;;;4978254;28;20884;-71
2023/02/08 01:36:27;;;;;;;1.87;1.37;;;3.80;99.90;;;;;;4972731;28;20682;-71
2023/02/08 01:38:53;;;;;;;2.17;1.43;;;3.80;99.90;;;;;;4992676;28;20216;-71
2023/02/08 01:41:32;;;;;;;2.43;1.60;;;3.90;99.90;;;;;;4980542;28;20189;-71
2023/02/08 01:44:11;;;;;;;2.00;1.20;;;3.90;99.90;;;;;;4972827;28;20178;-71
2023/02/08 01:46:47;;;;;;;3.30;1.87;;;3.90;99.90;;;;;;4979202;28;20182;-71
2023/02/08 01:49:36;;;;;;;3.30;1.50;;;4.00;99.90;;;;;;4980736;28;20243;-71
2023/02/08 01:52:22;;;;;;;2.83;1.27;;;4.00;99.90;;;;;;4975115;28;20187;-71
2023/02/08 01:54:59;;;;;;;3.60;1.47;;;3.90;99.90;;;;;;4979053;28;20197;-71
2023/02/08 01:57:26;;;;;;;3.10;1.70;;;3.80;99.90;;;;;;4977836;28;20996;-71
2023/02/08 02:00:02;;;;;;;2.80;1.70;;;3.80;99.90;;;;;;4974957;28;20238;-71
2023/02/08 02:02:29;;;;;;;2.03;1.57;;;3.80;99.90;;;;;;4982020;28;20200;-71
2023/02/08 02:04:56;;;;;;;3.47;1.70;;;3.80;99.90;;;;;;4981993;28;20193;-71
2023/02/08 02:07:28;;;;;;;5.17;1.80;;;3.80;99.90;;;;;;4984331;28;20186;-71
2023/02/08 02:10:33;;;;;;;2.10;1.60;;;3.80;99.90;;;;;;4980861;28;20528;-71
2023/02/08 02:13:19;;;;;;;2.10;1.50;;;3.80;99.90;;;;;;4926370;29;20194;-71
2023/02/08 02:15:47;;;;;;;1.83;1.30;;;3.70;99.90;;;;;;4996226;28;20206;-71
2023/02/08 02:18:22;;;;;;;2.43;1.67;;;3.80;99.90;;;;;;4983150;28;20272;-71
2023/02/08 02:21:09;;;;;;;2.23;1.40;;;3.80;99.90;;;;;;4982263;28;20271;-71
2023/02/08 02:24:41;;;;;;;3.60;1.47;;;3.80;99.90;;;;;;4979216;28;20765;-71
2023/02/08 02:27:57;;;;;;;1.47;1.27;;;3.90;99.90;;;;;;4983693;28;20189;-71
2023/02/08 02:31:02;;;;;;;2.70;1.63;;;3.90;99.90;;;;;;4941914;28;20618;-71
2023/02/08 02:34:00;;;;;;;2.00;1.60;;;3.80;99.90;;;;;;4963931;28;20284;-71
2023/02/08 02:37:22;;;;;;;4.03;1.50;;;3.80;99.90;;;;;;4974674;28;20526;-71
2023/02/08 02:39:58;;;;;;;3.30;1.60;;;3.80;99.90;;;;;;4956049;28;20261;-71
2023/02/08 02:46:11;;;;;;;4.00;2.00;;;3.70;99.90;;;;;;4983982;28;20202;-71
2023/02/08 02:48:44;;;;;;;5.87;2.40;;;3.60;99.90;;;;;;4981938;28;20182;-71
2023/02/08 02:51:47;;;;;;;4.67;2.50;;;3.60;99.90;;;;;;4977981;28;20189;-71
2023/02/08 02:54:46;;;;;;;3.20;2.13;;;3.60;99.90;;;;;;4958972;28;20198;-71
2023/02/08 02:57:28;;;;;;;4.37;2.40;;;3.50;99.90;;;;;;4993096;28;20208;-74
2023/02/08 02:59:56;;;;;;;6.37;2.50;;;3.50;99.90;;;;;;4991545;28;20358;-74
2023/02/08 03:02:27;;;;;;;6.57;2.90;;;3.40;99.90;;;;;;4977080;28;20186;-74
2023/02/08 03:04:56;;;;;;;7.87;2.67;;;3.30;99.90;;;;;;4982202;28;20730;-74
2023/02/08 03:07:22;;;;;;;3.40;1.97;;;3.20;99.90;;;;;;4962961;28;20875;-74
2023/02/08 03:10:25;;;;;;;4.80;2.43;;;3.10;99.90;;;;;;4981906;28;20198;-74
2023/02/08 03:13:36;;;;;;;7.70;3.03;;;3.10;99.90;;;;;;4973170;28;20197;-74
2023/02/08 03:17:07;;;;;;;6.43;2.63;;;3.10;99.90;;;;;;4991428;28;20988;-74
2023/02/08 03:19:53;;;;;;;4.03;2.47;;;2.90;99.90;;;;;;4968232;28;20781;-74
2023/02/08 03:22:29;;;;;;;6.00;3.10;;;2.90;99.90;;;;;;4969314;28;20182;-74
2023/02/08 03:25:10;;;;;;;4.70;2.60;;;2.70;99.90;;;;;;4980747;28;20201;-74
2023/02/08 03:27:54;;;;;;;3.07;1.90;;;2.70;99.90;;;;;;4960023;28;20268;-74
2023/02/08 03:30:44;;;;;;;3.63;1.70;;;2.80;99.90;;;;;;4981886;28;20181;-74
2023/02/08 03:33:22;;;;;;;2.00;1.47;;;2.70;99.90;;;;;;4974920;28;20729;-74
2023/02/08 03:36:01;;;;;;;3.87;2.40;;;2.80;99.90;;;;;;4977720;28;20726;-74
2023/02/08 03:38:40;;;;;;;5.10;2.60;;;2.70;99.90;;;;;;4978763;28;20185;-74
2023/02/08 03:41:16;;;;;;;9.30;3.40;;;2.70;99.90;;;;;;4961382;28;20205;-74
2023/02/08 03:44:03;;;;;;;7.90;3.17;;;2.80;99.90;;;;;;4976268;28;20419;-74
2023/02/08 03:46:43;;;;;;;6.00;2.27;;;2.70;99.90;;;;;;4973485;28;20978;-74
2023/02/08 03:49:22;;;;;;;3.73;2.10;;;2.70;99.90;;;;;;4978830;28;20201;-74
2023/02/08 03:51:52;;;;;;;5.80;2.43;;;2.70;99.90;;;;;;4979019;28;20309;-74
2023/02/08 03:54:27;;;;;;;6.37;2.80;;;2.70;99.90;;;;;;4997454;28;20656;-74
2023/02/08 03:57:15;;;;;;;14.03;4.13;;;2.70;99.90;;;;;;4981500;28;20246;-74
2023/02/08 03:59:54;;;;;;;8.97;3.97;;;2.70;99.90;;;;;;4962544;28;20228;-74
2023/02/08 04:02:24;;;;;;;8.17;3.67;;;2.80;99.90;;;;;;4981222;28;20188;-74
2023/02/08 04:04:52;;;;;;;11.70;3.50;;;2.80;99.90;;;;;;4980971;28;20273;-74
2023/02/08 04:07:19;;;;;;;5.40;3.37;;;2.70;99.90;;;;;;4983906;28;20186;-74
2023/02/08 04:09:46;;;;;;;6.97;3.10;;;2.70;99.90;;;;;;4983230;28;20232;-74
2023/02/08 04:12:13;;;;;;;7.23;2.30;;;2.80;99.90;;;;;;4981818;28;20185;-74
2023/02/08 04:14:39;;;;;;;4.07;2.03;;;2.80;99.90;;;;;;4979473;28;20190;-74
2023/02/08 04:17:06;;;;;;;4.50;2.77;;;2.80;99.90;;;;;;4980294;28;20247;-74
2023/02/08 04:19:33;;;;;;;3.73;2.13;;;2.80;99.90;;;;;;4978912;28;20256;-74
2023/02/08 04:21:59;;;;;;;5.83;2.50;;;2.70;99.90;;;;;;4980190;28;20181;-74
2023/02/08 04:24:25;;;;;;;3.83;2.00;;;2.70;99.90;;;;;;4980711;28;20264;-74
2023/02/08 04:26:51;;;;;;;2.77;1.40;;;2.80;99.90;;;;;;4978840;28;20190;-74
2023/02/08 04:29:18;;;;;;;2.70;1.60;;;3.00;99.90;;;;;;4980634;28;20189;-74
2023/02/08 04:31:44;;;;;;;2.37;1.77;;;3.10;99.90;;;;;;4977656;28;20276;-74
2023/02/08 04:34:10;;;;;;;3.90;1.73;;;3.10;99.90;;;;;;4979300;28;20265;-74
2023/02/08 04:36:37;;;;;;;4.27;1.70;;;3.20;99.90;;;;;;4977037;28;20271;-74
2023/02/08 04:39:03;;;;;;;4.10;1.30;;;3.20;99.90;;;;;;4978092;28;20220;-74
2023/02/08 04:41:29;;;;;;;2.83;1.77;;;3.20;99.90;;;;;;4979691;28;20209;-74
2023/02/08 04:43:55;;;;;;;3.70;1.50;;;3.20;99.90;;;;;;4997383;28;20198;-74
2023/02/08 04:46:22;;;;;;;2.57;1.40;;;3.20;99.90;;;;;;4979396;28;20193;-74
2023/02/08 04:48:49;;;;;;;2.60;1.60;;;3.20;99.90;;;;;;4980776;28;20710;-74
2023/02/08 04:51:15;;;;;;;1.60;1.33;;;3.20;99.90;;;;;;4983477;28;20190;-75
2023/02/08 04:53:41;;;;;;;2.70;1.50;;;3.30;99.90;;;;;;4978504;28;20205;-74
2023/02/08 04:56:07;;;;;;;2.47;1.43;;;3.30;99.90;;;;;;4978077;28;20268;-74
2023/02/08 04:58:35;;;;;;;3.10;1.50;;;3.30;99.90;;;;;;4978422;28;20194;-74
2023/02/08 05:01:05;;;;;;;5.23;1.67;;;3.20;99.90;;;;;;4992739;28;20182;-74
2023/02/08 05:03:31;;;;;;;3.60;2.00;;;3.20;99.90;;;;;;4983709;28;20181;-75
2023/02/08 05:05:59;;;;;;;4.40;2.30;;;3.20;99.90;;;;;;4977436;28;20187;-74
2023/02/08 05:08:26;;;;;;;3.83;1.80;;;2.80;99.90;;;;;;4981383;28;20221;-74
2023/02/08 05:10:53;;;;;;;4.47;2.00;;;2.40;99.90;;;;;;4980558;28;21204;-74
2023/02/08 05:13:19;;;;;;;6.40;3.00;;;2.30;99.90;;;;;;4980928;28;20244;-74
2023/02/08 05:15:45;;;;;;;14.13;5.83;;;2.10;99.90;;;;;;4977563;28;20185;-74
2023/02/08 05:18:11;;;;;;;13.27;4.73;;;2.00;99.90;;;;;;4982074;28;20200;-74
2023/02/08 05:20:38;;;;;;;23.73;8.90;;;1.80;99.90;;;;;;4980304;28;20317;-74
2023/02/08 05:23:04;;;;;;;26.37;10.07;;;1.70;99.90;;;;;;4981321;28;20185;-74
2023/02/08 05:25:31;;;;;;;43.77;16.63;;;2.10;99.90;;;;;;4963661;28;20416;-74
2023/02/08 05:27:59;;;;;;;24.07;8.47;;;2.20;99.90;;;;;;4979917;28;20288;-74
2023/02/08 05:30:25;;;;;;;26.20;9.50;;;2.00;99.90;;;;;;4979869;28;20217;-74
2023/02/08 05:32:52;;;;;;;25.40;7.70;;;1.70;99.90;;;;;;4976112;28;20288;-74
2023/02/08 05:35:18;;;;;;;19.80;7.27;;;1.60;99.90;;;;;;4978918;28;20783;-74
2023/02/08 05:37:44;;;;;;;17.70;6.30;;;1.50;99.90;;;;;;4979716;28;20304;-74
2023/02/08 05:40:12;;;;;;;16.90;5.87;;;1.50;99.90;;;;;;4980273;28;20255;-74
2023/02/08 05:42:38;;;;;;;13.30;4.67;;;1.40;99.90;;;;;;4999091;28;20267;-74
2023/02/08 05:45:05;;;;;;;8.73;3.70;;;1.40;99.90;;;;;;4982734;28;20272;-74
2023/02/08 05:47:31;;;;;;;5.00;3.17;;;1.40;99.90;;;;;;4979790;28;20983;-74
2023/02/08 05:49:58;;;;;;;11.57;2.90;;;1.40;99.90;;;;;;4978256;28;20718;-74
2023/02/08 05:52:24;;;;;;;4.77;2.60;;;1.40;99.90;;;;;;4981928;28;20804;-74
2023/02/08 05:54:50;;;;;;;3.77;2.13;;;1.40;99.90;;;;;;4969089;28;20189;-74
2023/02/08 05:57:16;;;;;;;3.50;1.93;;;1.50;99.90;;;;;;4981067;28;20204;-74
2023/02/08 05:59:42;;;;;;;4.22;2.20;;;1.50;99.90;;;;;;4978210;28;20428;-74
2023/02/08 06:02:08;;;;;;;6.60;1.67;;;1.60;99.90;;;;;;4999742;28;20181;-74
2023/02/08 06:04:35;;;;;;;3.50;1.60;;;1.70;99.90;;;;;;4981766;28;20192;-74
2023/02/08 06:07:01;;;;;;;5.03;2.20;;;1.80;99.90;;;;;;4981823;28;20182;-74
2023/02/08 06:09:27;;;;;;;3.70;2.13;;;1.90;99.90;;;;;;4984921;28;20418;-74
2023/02/08 06:11:53;;;;;;;3.23;1.70;;;2.00;99.90;;;;;;4999547;28;20616;-74
2023/02/08 06:14:19;;;;;;;4.03;2.03;;;2.10;99.90;;;;;;4983111;28;20272;-74
2023/02/08 06:16:46;;;;;;;3.93;2.10;;;2.20;99.90;;;;;;4985426;28;20190;-74
2023/02/08 06:19:12;;;;;;;1.97;1.60;;;2.30;99.90;;;;;;4985504;28;20193;-74
2023/02/08 06:21:39;;;;;;;2.00;1.70;;;2.40;99.90;;;;;;4980997;28;20189;-74
2023/02/08 06:24:05;;;;;;;2.30;1.73;;;2.40;99.90;;;;;;4981391;28;20189;-74
2023/02/08 06:26:33;;;;;;;1.90;1.40;;;2.50;99.90;;;;;;4980926;28;20185;-74
2023/02/08 06:29:00;;;;;;;1.87;1.60;;;2.50;99.90;;;;;;4981767;28;20552;-74
2023/02/08 06:31:26;;;;;;;2.20;1.90;;;2.70;99.90;;;;;;4978456;28;20193;-74
2023/02/08 06:33:52;;;;;;;3.80;1.57;;;2.70;99.90;;;;;;4965358;28;20194;-74
2023/02/08 06:36:18;;;;;;;2.23;1.50;;;2.80;99.90;;;;;;4984167;28;20212;-74
2023/02/08 06:38:45;;;;;;;2.00;1.57;;;2.90;99.90;;;;;;4984960;28;20208;-74
2023/02/08 06:41:11;;;;;;;1.87;1.40;;;2.80;99.90;;;;;;4997018;28;20220;-74
2023/02/08 06:43:37;;;;;;;2.10;1.60;;;2.90;99.90;;;;;;4980102;28;20861;-74
2023/02/08 06:46:07;;;;;;;3.50;1.97;;;3.10;99.90;;;;;;4964710;28;20197;-74
2023/02/08 06:48:35;;;;;;;3.50;1.80;;;3.10;99.90;;;;;;4982353;28;20744;-74
2023/02/08 06:51:01;;;;;;;4.37;2.30;;;3.10;99.90;;;;;;4984642;28;20286;-74
2023/02/08 06:53:28;;;;;;;2.67;2.07;;;3.30;99.90;;;;;;4982924;28;20661;-74
2023/02/08 06:55:55;;;;;;;2.13;1.53;;;3.30;99.90;;;;;;4981594;28;20203;-74
2023/02/08 06:58:23;;;;;;;2.37;1.70;;;3.30;99.90;;;;;;4979680;28;20240;-74
2023/02/08 07:00:50;;;;;;;2.27;1.67;;;3.40;99.90;;;;;;4978349;28;20344;-74
2023/02/08 07:03:16;;;;;;;4.97;1.90;;;3.60;99.90;;;;;;4979456;28;20182;-74
2023/02/08 07:05:43;;;;;;;2.73;1.80;;;3.60;99.90;;;;;;4985550;28;20178;-74
2023/02/08 07:08:09;;;;;;;3.87;1.47;;;3.80;99.90;;;;;;4966342;28;20188;-74
2023/02/08 07:10:41;;;;;;;1.77;1.50;;;3.90;99.90;;;;;;4986480;28;20279;-74
2023/02/08 07:13:08;;;;;;;2.50;1.60;;;3.80;99.90;;;;;;4990489;28;20227;-74
2023/02/08 07:15:34;;;;;;;4.03;1.60;;;4.00;99.90;;;;;;4980566;28;20193;-74
2023/02/08 07:18:00;;;;;;;4.47;1.90;;;4.20;99.90;;;;;;4990733;28;20189;-74
2023/02/08 07:20:27;;;;;;;3.17;1.60;;;4.20;99.90;;;;;;4986689;28;20209;-74
2023/02/08 07:22:53;;;;;;;3.87;1.60;;;4.20;99.90;;;;;;4993255;28;20601;-74
2023/02/08 07:25:21;;;;;;;2.03;1.50;;;4.30;99.90;;;;;;4982772;28;20249;-75
2023/02/08 07:27:47;;;;;;;2.93;1.67;;;4.30;99.90;;;;;;4984695;28;20185;-74
2023/02/08 07:30:13;;;;;;;3.10;1.60;;;4.60;99.90;;;;;;4986415;28;20280;-74
2023/02/08 07:32:39;;;;;;;3.00;1.53;;;4.80;99.90;;;;;;4974152;28;20321;-74
2023/02/08 07:35:06;;;;;;;2.93;1.40;;;4.90;99.90;;;;;;4980189;28;20198;-74
2023/02/08 07:37:32;;;;;;;4.23;1.57;;;5.10;99.90;;;;;;4983162;28;20190;-74
2023/02/08 07:39:59;;;;;;;1.90;1.33;;;4.90;99.90;;;;;;4991530;28;20686;-74
2023/02/08 07:42:25;;;;;;;2.00;1.30;;;4.80;99.90;;;;;;4979541;28;20189;-74
2023/02/08 07:44:51;;;;;;;2.63;1.40;;;4.60;99.90;;;;;;4973767;28;20276;-74
2023/02/08 07:47:17;;;;;;;3.67;1.70;;;4.50;99.90;;;;;;4979537;28;20186;-74
2023/02/08 07:49:44;;;;;;;2.80;1.40;;;4.50;99.90;;;;;;4979671;28;20202;-74
2023/02/08 07:52:10;;;;;;;2.13;1.60;;;4.60;99.90;;;;;;4975583;28;20204;-74
2023/02/08 07:54:36;;;;;;;3.20;1.50;;;4.80;99.90;;;;;;4981792;28;20185;-74
2023/02/08 07:57:03;;;;;;;5.80;1.50;;;4.60;99.90;;;;;;4982466;28;20717;-74
2023/02/08 07:59:29;;;;;;;3.37;1.40;;;4.60;99.90;;;;;;4974330;28;20213;-74
2023/02/08 08:01:55;;;;;;;2.93;1.40;;;4.40;99.90;;;;;;4976302;28;20200;-74
2023/02/08 08:04:21;;;;;;;3.07;1.63;;;4.40;99.90;;;;;;4976796;28;20268;-74
2023/02/08 08:06:49;;;;;;;2.00;1.47;;;4.40;99.90;;;;;;4976350;28;20871;-74
2023/02/08 08:09:15;;;;;;;2.10;1.23;;;4.40;99.90;;;;;;4962901;28;20248;-74
2023/02/08 08:11:41;;;;;;;2.63;1.50;;;4.90;99.90;;;;;;4978268;28;20714;-74
2023/02/08 08:14:08;;;;;;;3.03;1.30;;;4.80;99.90;;;;;;4981832;28;20248;-74
2023/02/08 08:16:34;;;;;;;2.17;1.23;;;4.60;99.90;;;;;;4982183;28;20185;-74
2023/02/08 08:19:00;;;;;;;4.30;1.40;;;4.60;99.90;;;;;;4980289;28;20206;-74
2023/02/08 08:21:26;;;;;;;1.73;1.33;;;4.80;99.90;;;;;;4957301;28;20189;-74
2023/02/08 08:23:54;;;;;;;2.63;1.57;;;4.80;99.90;;;;;;4980408;28;20186;-74
2023/02/08 08:26:21;;;;;;;7.40;1.60;;;4.80;99.90;;;;;;4975917;28;20185;-74
2023/02/08 08:28:47;;;;;;;3.67;1.30;;;5.00;99.90;;;;;;4972838;28;20189;-74
2023/02/08 08:31:19;;;;;;;3.10;1.10;;;5.20;99.90;;;;;;4986672;28;20919;-74
2023/02/08 08:33:46;;;;;;;3.13;1.50;;;5.20;99.90;;;;;;4978043;28;20911;-74
2023/02/08 08:36:13;;;;;;;2.43;1.30;;;5.60;99.90;;;;;;4979504;28;20178;-74
2023/02/08 08:38:39;;;;;;;2.60;1.40;;;5.90;99.90;;;;;;4984516;28;20579;-74
2023/02/08 08:41:13;;;;;;;3.27;1.40;;;5.70;99.90;;;;;;4974796;28;20262;-74
2023/02/08 08:43:39;;;;;;;2.03;1.27;;;5.50;99.90;;;;;;4975015;28;20194;-74
2023/02/08 08:46:07;;;;;;;3.83;1.60;;;5.60;99.90;;;;;;4981421;28;20215;-74
2023/02/08 08:48:35;;;;;;;3.00;1.50;;;5.50;99.90;;;;;;4983394;28;20188;-74
2023/02/08 08:51:03;;;;;;;2.50;1.20;;;5.60;99.90;;;;;;4979489;28;20722;-74
2023/02/08 08:53:29;;;;;;;5.13;1.30;;;5.30;99.90;;;;;;4979005;28;20659;-74
2023/02/08 08:55:56;;;;;;;2.03;1.30;;;5.60;99.90;;;;;;4988925;28;20192;-74
2023/02/08 08:58:22;;;;;;;3.43;1.57;;;5.40;99.90;;;;;;4993831;28;20289;-74
2023/02/08 09:00:49;;;;;;;4.23;1.67;;;5.20;99.90;;;;;;4976846;28;20214;-74
2023/02/08 09:03:15;;;;;;;1.57;1.20;;;5.20;99.90;;;;;;4979963;28;20562;-74
2023/02/08 09:05:41;;;;;;;2.53;1.40;;;5.10;99.90;;;;;;4966014;28;20957;-74
2023/02/08 09:08:07;;;;;;;3.47;1.30;;;5.50;99.90;;;;;;4974870;28;20883;-74
2023/02/08 09:10:34;;;;;;;2.63;1.40;;;5.70;99.90;;;;;;4980569;28;20559;-74
2023/02/08 09:13:00;;;;;;;2.43;1.40;;;5.50;99.90;;;;;;4972727;28;20218;-74
2023/02/08 09:15:26;;;;;;;2.37;1.10;;;5.40;99.90;;;;;;4976018;28;20192;-74
2023/02/08 09:17:53;;;;;;;1.83;1.30;;;5.30;99.90;;;;;;4971567;28;20243;-74
2023/02/08 09:20:20;;;;;;;2.63;1.13;;;5.60;99.90;;;;;;4981758;28;20233;-74
2023/02/08 09:22:46;;;;;;;1.97;1.10;;;6.30;99.90;;;;;;4977602;28;20186;-74
2023/02/08 09:25:12;;;;;;;3.22;1.33;;;6.50;99.90;;;;;;4977177;28;20887;-75
2023/02/08 09:27:39;;;;;;;2.08;1.33;;;6.70;99.90;;;;;;4961994;28;20414;-74
2023/02/08 09:30:05;;;;;;;3.27;1.50;;;6.70;99.90;;;;;;4977099;28;20181;-74
2023/02/08 09:32:33;;;;;;;1.93;1.30;;;6.60;99.90;;;;;;4980866;28;20189;-74
2023/02/08 09:35:01;;;;;;;5.50;1.27;;;6.70;99.90;;;;;;4983157;28;20193;-74
2023/02/08 09:37:28;;;;;;;7.33;1.47;;;6.30;99.90;;;;;;4976427;28;20232;-74
2023/02/08 09:39:57;;;;;;;2.40;1.27;;;6.20;99.90;;;;;;4977964;28;20252;-74
2023/02/08 09:42:42;;;;;;;2.43;1.17;;;6.50;99.90;;;;;;4980467;28;20822;-74
2023/02/08 09:45:26;;;;;;;3.07;1.27;;;6.70;99.90;;;;;;4978506;28;20656;-74
2023/02/08 09:48:14;;;;;;;2.07;1.13;;;7.00;99.90;;;;;;4984670;28;20208;-74
2023/02/08 09:50:58;;;;;;;2.67;1.20;;;7.10;99.90;;;;;;4967805;28;20188;-74
2023/02/08 09:53:35;;;;;;;3.10;1.60;;;7.30;99.90;;;;;;4977868;28;20189;-74
2023/02/08 09:56:11;;;;;;;3.23;1.67;;;7.20;99.90;;;;;;4983372;28;20196;-74
2023/02/08 09:58:43;;;;;;;2.93;1.60;;;7.10;99.90;;;;;;4982441;28;20185;-74
2023/02/08 10:01:25;;;;;;;3.77;1.63;;;7.00;99.90;;;;;;4983149;28;20196;-74
2023/02/08 10:04:07;;;;;;;1.57;1.37;;;6.70;99.90;;;;;;4985442;28;20425;-74
2023/02/08 10:06:34;;;;;;;1.70;1.30;;;6.70;99.90;;;;;;4975015;28;20277;-74
2023/02/08 10:09:09;;;;;;;2.33;1.40;;;6.50;99.90;;;;;;4986222;28;20190;-74
2023/02/08 10:12:20;;;;;;;2.60;1.43;;;6.40;99.90;;;;;;4969551;28;20213;-74
2023/02/08 10:15:16;;;;;;;2.10;1.40;;;6.30;99.90;;;;;;4972267;28;20192;-75
2023/02/08 10:18:25;;;;;;;2.53;1.10;;;6.40;99.90;;;;;;4985354;28;20678;-74
2023/02/08 10:21:32;;;;;;;3.63;1.47;;;6.50;99.90;;;;;;4988304;28;20638;-74
2023/02/08 10:24:22;;;;;;;5.00;1.30;;;6.60;99.90;;;;;;4986055;28;20193;-74
2023/02/08 10:27:12;;;;;;;4.87;1.40;;;6.70;99.90;;;;;;4982390;28;20278;-74
2023/02/08 10:30:00;;;;;;;2.40;1.30;;;6.50;99.90;;;;;;4972019;28;20189;-74
2023/02/08 10:32:44;;;;;;;2.80;1.33;;;6.30;99.90;;;;;;4988955;28;20526;-74
2023/02/08 10:35:23;;;;;;;2.97;1.30;;;6.30;99.90;;;;;;4986442;28;20212;-74
2023/02/08 10:37:49;;;;;;;2.70;1.23;;;6.70;99.90;;;;;;4988585;28;20229;-74
2023/02/08 10:40:38;;;;;;;1.80;1.20;;;7.10;99.90;;;;;;5000004;28;20272;-74
2023/02/08 10:43:34;;;;;;;3.10;1.40;;;7.50;99.90;;;;;;4966281;28;20282;-74
2023/02/08 10:46:39;;;;;;;2.60;1.40;;;8.00;99.90;;;;;;4978663;28;20182;-74
2023/02/08 10:49:36;;;;;;;2.17;1.23;;;8.70;99.90;;;;;;4964149;28;20242;-74
2023/02/08 10:52:03;;;;;;;2.87;1.47;;;8.90;99.90;;;;;;4980778;28;20473;-74
2023/02/08 10:54:29;;;;;;;2.87;1.40;;;9.50;99.90;;;;;;4987462;28;20190;-74
2023/02/08 10:57:03;;;;;;;2.47;1.63;;;9.60;99.90;;;;;;4983168;28;20233;-74
2023/02/08 10:59:57;;;;;;;3.90;1.43;;;9.30;99.90;;;;;;4989225;28;20206;-73
2023/02/08 11:02:39;;;;;;;9.87;1.40;;;9.60;99.90;;;;;;4997631;28;20182;-74
2023/02/08 11:05:17;;;;;;;1.40;1.30;;;9.70;99.90;;;;;;4979852;28;20428;-74
2023/02/08 11:07:44;;;;;;;3.60;1.47;;;9.40;99.90;;;;;;4981107;28;20182;-74
2023/02/08 11:10:19;;;;;;;5.43;1.63;;;9.80;99.90;;;;;;4981788;28;20201;-72
2023/02/08 11:13:14;;;;;;;4.53;1.30;;;9.80;99.90;;;;;;4980615;28;20189;-74
2023/02/08 11:15:59;;;;;;;9.30;1.47;;;10.10;99.90;;;;;;4977457;28;20239;-74
2023/02/08 11:18:33;;;;;;;4.30;1.60;;;10.20;99.90;;;;;;4983807;28;20729;-74
2023/02/08 11:21:23;;;;;;;1.93;1.40;;;10.90;99.90;;;;;;4976985;28;20720;-74
2023/02/08 11:23:55;;;;;;;6.67;1.33;;;10.90;99.90;;;;;;4978985;28;20327;-74
2023/02/08 11:26:36;;;;;;;2.70;1.43;;;11.30;99.90;;;;;;4976365;28;20551;-74
2023/02/08 11:29:28;;;;;;;7.17;1.50;;;11.30;99.90;;;;;;4980559;28;20232;-74
2023/02/08 11:31:54;;;;;;;3.93;1.60;;;10.90;99.90;;;;;;4976825;28;20194;-74
2023/02/08 11:34:26;;;;;;;2.67;1.30;;;10.10;99.90;;;;;;4957547;28;20221;-74
2023/02/08 11:36:54;;;;;;;3.17;1.40;;;9.90;99.90;;;;;;4977644;28;20194;-74
2023/02/08 11:39:30;;;;;;;6.03;1.20;;;9.50;99.90;;;;;;4982061;28;20755;-74
2023/02/08 11:42:01;;;;;;;2.73;1.50;;;9.40;99.90;;;;;;4976432;28;20196;-72
2023/02/08 11:44:30;;;;;;;4.47;1.50;;;9.50;99.90;;;;;;4984834;28;20299;-74
2023/02/08 11:47:05;;;;;;;6.00;1.30;;;9.70;99.90;;;;;;4962332;28;20181;-74
2023/02/08 11:49:50;;;;;;;4.20;1.30;;;9.70;99.90;;;;;;4992071;28;20188;-73
2023/02/08 11:52:37;;;;;;;10.53;2.13;;;9.80;99.90;;;;;;4989590;28;20186;-75
2023/02/08 11:55:18;;;;;;;3.60;1.43;;;9.30;99.90;;;;;;4979627;28;20212;-74
2023/02/08 11:58:10;;;;;;;3.27;1.47;;;9.60;99.90;;;;;;4928013;28;1548969;-74
2023/02/08 12:00:39;;;;;;;8.83;1.40;;;9.70;99.90;;;;;;4972888;28;20296;-74
2023/02/08 12:03:17;;;;;;;3.30;1.30;;;9.70;99.90;;;;;;4976451;28;20186;-73
2023/02/08 12:05:52;;;;;;;3.83;1.17;;;9.80;99.90;;;;;;4970550;28;20190;-73
2023/02/08 12:08:41;;;;;;;1.77;1.20;;;9.70;99.90;;;;;;4981631;28;20643;-73
2023/02/08 12:11:31;;;;;;;1.43;1.03;;;9.70;99.90;;;;;;4978611;28;20190;-73
2023/02/08 12:14:35;;;;;;;2.50;1.13;;;9.70;99.90;;;;;;4983245;28;20706;-73
2023/02/08 12:17:38;;;;;;;9.23;1.17;;;9.70;99.90;;;;;;4974313;28;21051;-73
2023/02/08 12:20:36;;;;;;;3.57;1.07;;;9.70;99.90;;;;;;4972550;28;20213;-73
2023/02/08 12:23:20;;;;;;;2.70;1.00;;;9.70;99.90;;;;;;4964032;28;20213;-73
2023/02/08 12:26:08;;;;;;;3.70;1.30;;;9.50;99.90;;;;;;4979884;28;20643;-73
2023/02/08 12:29:30;;;;;;;5.10;1.20;;;9.50;99.90;;;;;;4973907;28;20698;-74
2023/02/08 12:33:00;;;;;;;3.97;1.10;;;9.50;99.90;;;;;;4976877;28;22373;-73
2023/02/08 12:35:50;;;;;;;3.43;1.10;;;9.50;99.90;;;;;;4957466;28;20569;-73
2023/02/08 12:42:08;;;;;;;1.97;1.13;;;9.30;99.90;;;;;;4975615;28;20938;-74
2023/02/08 12:45:17;;;;;;;2.83;1.20;;;9.40;99.90;;;;;;4980159;28;20280;-73
2023/02/08 12:48:06;;;;;;;2.90;1.20;;;9.30;99.90;;;;;;4970355;28;20519;-73
2023/02/08 12:51:01;;;;;;;4.90;1.20;;;9.20;99.90;;;;;;4974028;28;20193;-73
2023/02/08 12:53:37;;;;;;;2.83;1.43;;;9.10;99.90;;;;;;4991327;28;20663;-73
2023/02/08 12:56:19;;;;;;;7.50;1.60;;;9.10;99.90;;;;;;4980943;28;20243;-73
2023/02/08 12:58:51;;;;;;;5.73;1.10;;;9.10;99.90;;;;;;4976743;28;20190;-73
2023/02/08 13:01:24;;;;;;;2.30;1.03;;;9.10;99.90;;;;;;4958334;28;20703;-73
2023/02/08 13:04:08;;;;;;;2.03;1.10;;;9.10;99.90;;;;;;4996324;28;20651;-73
2023/02/08 13:06:57;;;;;;;4.33;1.10;;;9.00;99.90;;;;;;4957199;28;20976;-73
2023/02/08 13:10:02;;;;;;;2.33;0.93;;;9.00;99.90;;;;;;4980352;28;20201;-73
2023/02/08 13:12:37;;;;;;;2.60;1.40;;;9.00;99.90;;;;;;4967537;28;20276;-73
2023/02/08 13:15:14;;;;;;;5.03;1.10;;;8.90;99.90;;;;;;4976606;28;20721;-73
2023/02/08 13:18:03;;;;;;;1.90;1.00;;;8.80;99.90;;;;;;4977434;28;20731;-73
2023/02/08 13:20:48;;;;;;;3.27;0.87;;;8.80;99.90;;;;;;4970475;28;20236;-73
2023/02/08 13:23:41;;;;;;;2.80;1.20;;;8.80;99.90;;;;;;4978885;28;20205;-73
2023/02/08 13:26:25;;;;;;;4.67;1.30;;;8.70;99.90;;;;;;4976785;28;20813;-73
2023/02/08 13:28:55;;;;;;;2.03;1.10;;;8.60;99.90;;;;;;4965251;28;20184;-73
2023/02/08 13:31:31;;;;;;;4.13;1.30;;;8.50;99.90;;;;;;4976712;28;20212;-73
2023/02/08 13:34:12;;;;;;;3.53;1.43;;;8.50;99.90;;;;;;4982447;28;20717;-73
2023/02/08 13:36:58;;;;;;;3.80;1.10;;;8.40;99.90;;;;;;4977474;28;20197;-73
2023/02/08 13:39:33;;;;;;;2.07;1.27;;;8.40;99.90;;;;;;4979204;28;20692;-73